X  Close Metar Aviation Weather Data     KAST Astoria Regional
Temperature
52°F Temperature
48°F Dewpoint
88% Humidity



Wind
7 MPH
11 KM/H
3 M/S
6 KTS



Calm
North
Current Conditions

Mostly Scattered Clouds Mostly Scattered Clouds
Pressure 1017.32 (hPa) - 30.04 (inHg)
Visibility 8 (mile) - 12.9 (km)
Airport
Airport-code KAST

Location: Astoria Regional
Distance: 20 (mi)

Metar:
KAST 251955Z AUTO VRB06G14KT 8SM SCT014 OVC023 11/09 A3004 RMK AO2 SLP172 T01060089

Time: 01-25-2020 11:55 PST